Time;durP1;ratioP1;P1;durP2;ratioP2;P2;SDS_P1;SDS_P2;PMS_P1;PMS_P2;Temp;Humidity;BMP_temperature;BMP_pressure;BME280_temperature;BME280_humidity;BME280_pressure;Samples;Min_cycle;Max_cycle;Signal;HPM_P1;HPM_P2
2024/04/21 00:00:04;;;;;;;0.20;0.20;;;3.50;99.90;;;;;;5454902;26;20066;-76
2024/04/21 00:02:29;;;;;;;0.57;0.40;;;3.40;99.90;;;;;;5487315;26;20026;-77
2024/04/21 00:04:55;;;;;;;0.57;0.25;;;3.30;99.90;;;;;;5454062;26;20009;-77
2024/04/21 00:07:21;;;;;;;0.45;0.30;;;3.20;99.90;;;;;;5454831;26;20034;-77
2024/04/21 00:09:46;;;;;;;0.35;0.20;;;3.30;99.90;;;;;;5454822;26;20542;-77
2024/04/21 00:12:12;;;;;;;0.35;0.22;;;3.40;99.90;;;;;;5486594;26;19990;-76
2024/04/21 00:14:37;;;;;;;0.40;0.40;;;3.10;99.90;;;;;;5486201;26;20084;-77
2024/04/21 00:17:03;;;;;;;0.30;0.30;;;3.50;99.90;;;;;;5455061;26;20453;-78
2024/04/21 00:19:29;;;;;;;0.20;0.20;;;3.00;99.90;;;;;;5454635;26;19998;-76
2024/04/21 00:21:54;;;;;;;0.30;0.30;;;3.00;99.90;;;;;;5486556;26;20002;-76
2024/04/21 00:24:20;;;;;;;0.20;0.20;;;2.80;99.90;;;;;;5455665;26;20001;-76
2024/04/21 00:26:46;;;;;;;0.35;0.30;;;2.80;99.90;;;;;;5490804;26;20016;-77
2024/04/21 00:29:11;;;;;;;0.80;0.20;;;3.10;99.90;;;;;;5490559;26;20067;-77
2024/04/21 00:31:38;;;;;;;0.50;0.50;;;3.10;99.90;;;;;;5458149;26;20005;-76
2024/04/21 00:34:03;;;;;;;0.38;0.38;;;3.00;99.90;;;;;;5489243;26;19994;-77
2024/04/21 00:36:29;;;;;;;0.38;0.38;;;3.30;99.90;;;;;;5490650;26;20000;-76
2024/04/21 00:38:55;;;;;;;0.40;0.40;;;2.60;99.90;;;;;;5490517;26;19994;-77
2024/04/21 00:41:22;;;;;;;2.72;0.50;;;2.50;99.90;;;;;;5457874;26;20005;-77
2024/04/21 00:43:47;;;;;;;0.90;0.50;;;2.90;99.90;;;;;;5489317;26;19998;-77
2024/04/21 00:46:13;;;;;;;0.40;0.40;;;2.70;99.90;;;;;;5490027;26;19994;-77
2024/04/21 00:48:39;;;;;;;1.60;0.40;;;2.80;99.90;;;;;;5490332;26;20009;-77
2024/04/21 00:51:06;;;;;;;0.40;0.40;;;2.30;99.90;;;;;;5457702;26;19994;-76
2024/04/21 00:53:32;;;;;;;0.20;0.20;;;2.30;99.90;;;;;;5490328;26;20008;-77
2024/04/21 00:55:58;;;;;;;0.30;0.30;;;2.60;99.90;;;;;;5456941;26;19998;-76
2024/04/21 00:58:24;;;;;;;0.32;0.32;;;2.50;99.90;;;;;;5457733;26;19994;-77
2024/04/21 01:00:50;;;;;;;0.40;0.40;;;2.30;99.90;;;;;;5457638;26;20067;-77
2024/04/21 01:03:16;;;;;;;0.75;0.47;;;2.40;99.90;;;;;;5489917;26;19994;-77
2024/04/21 01:05:42;;;;;;;0.20;0.20;;;2.00;99.90;;;;;;5456884;26;20009;-77
2024/04/21 01:08:08;;;;;;;0.40;0.30;;;2.10;99.90;;;;;;5489984;26;20002;-77
2024/04/21 01:10:34;;;;;;;0.45;0.40;;;2.00;99.90;;;;;;5489556;26;20070;-77
2024/04/21 01:12:59;;;;;;;0.52;0.32;;;2.60;99.90;;;;;;5490124;26;19994;-76
2024/04/21 01:15:25;;;;;;;0.63;0.40;;;2.30;99.90;;;;;;5488791;26;20528;-76
2024/04/21 01:17:51;;;;;;;0.25;0.25;;;2.40;99.90;;;;;;5457417;26;20092;-77
2024/04/21 01:20:16;;;;;;;0.50;0.50;;;1.90;99.90;;;;;;5457173;26;20328;-76
2024/04/21 01:22:46;;;;;;;0.68;0.50;;;1.90;99.90;;;;;;5489646;26;20005;-77
2024/04/21 01:25:12;;;;;;;0.88;0.63;;;2.00;99.90;;;;;;5488560;26;19998;-77
2024/04/21 01:27:38;;;;;;;0.60;0.30;;;1.90;99.90;;;;;;5489838;26;20002;-76
2024/04/21 01:30:04;;;;;;;0.22;0.22;;;1.90;99.90;;;;;;5489764;26;19995;-76
2024/04/21 01:32:29;;;;;;;0.40;0.40;;;1.80;99.90;;;;;;5456993;26;20341;-77
2024/04/21 01:34:55;;;;;;;0.65;0.50;;;1.90;99.90;;;;;;5456299;26;20002;-77
2024/04/21 01:37:21;;;;;;;0.63;0.40;;;2.10;99.90;;;;;;5489450;26;19990;-76
2024/04/21 01:39:46;;;;;;;0.68;0.65;;;1.70;99.90;;;;;;5489339;26;19994;-76
2024/04/21 01:42:12;;;;;;;1.23;0.60;;;1.80;99.90;;;;;;5457140;26;20009;-77
2024/04/21 01:44:38;;;;;;;0.73;0.65;;;2.00;99.90;;;;;;5456307;26;20008;-76
2024/04/21 01:47:03;;;;;;;0.55;0.40;;;1.80;99.90;;;;;;5456954;26;20008;-77
2024/04/21 01:49:29;;;;;;;0.95;0.52;;;1.80;99.90;;;;;;5462259;26;20009;-77
2024/04/21 01:51:55;;;;;;;1.50;0.60;;;2.00;99.90;;;;;;5476835;26;20051;-77
2024/04/21 01:54:21;;;;;;;1.45;0.63;;;2.80;99.90;;;;;;5465899;26;20004;-76
2024/04/21 01:56:46;;;;;;;0.82;0.63;;;1.90;99.90;;;;;;5420926;26;20003;-76
2024/04/21 01:59:12;;;;;;;1.23;0.60;;;2.00;99.90;;;;;;5452485;26;20434;-76
2024/04/21 02:01:38;;;;;;;0.73;0.50;;;1.80;99.90;;;;;;5420747;26;19994;-77
2024/04/21 02:04:03;;;;;;;0.65;0.65;;;2.50;99.90;;;;;;5451981;26;19997;-77
2024/04/21 02:06:29;;;;;;;0.85;0.70;;;1.60;99.90;;;;;;5420774;26;20407;-76
2024/04/21 02:08:55;;;;;;;0.60;0.60;;;1.70;99.90;;;;;;5452508;26;19991;-76
2024/04/21 02:11:21;;;;;;;0.75;0.63;;;1.40;99.90;;;;;;5452799;26;19999;-77
2024/04/21 02:13:46;;;;;;;0.38;0.38;;;1.60;99.90;;;;;;5419821;26;19994;-77
2024/04/21 02:16:12;;;;;;;0.60;0.60;;;1.30;99.90;;;;;;5452438;26;20445;-75
2024/04/21 02:18:38;;;;;;;0.60;0.40;;;1.80;99.90;;;;;;5452464;26;20002;-77
2024/04/21 02:21:03;;;;;;;4.43;0.85;;;2.20;99.90;;;;;;5452584;26;19994;-76
2024/04/21 02:23:29;;;;;;;2.63;0.68;;;1.50;99.90;;;;;;5420996;26;20040;-77
2024/04/21 02:25:59;;;;;;;3.03;1.17;;;1.70;99.90;;;;;;5419851;26;19991;-76
2024/04/21 02:28:25;;;;;;;1.02;0.60;;;1.70;99.90;;;;;;5452555;26;20341;-77
2024/04/21 02:30:51;;;;;;;0.63;0.60;;;1.20;99.90;;;;;;5452077;26;20021;-77
2024/04/21 02:33:17;;;;;;;0.73;0.70;;;2.10;99.90;;;;;;5420534;26;19999;-76
2024/04/21 02:35:43;;;;;;;0.50;0.50;;;1.60;99.90;;;;;;5419637;26;19995;-75
2024/04/21 02:38:11;;;;;;;2.65;0.65;;;1.70;99.90;;;;;;5420159;26;20014;-76
2024/04/21 02:40:37;;;;;;;1.50;0.88;;;2.10;99.90;;;;;;5451883;26;19995;-77
2024/04/21 02:43:03;;;;;;;0.70;0.70;;;1.50;99.90;;;;;;5452422;26;20006;-77
2024/04/21 02:45:29;;;;;;;1.55;0.70;;;1.40;99.90;;;;;;5451220;26;19999;-77
2024/04/21 02:47:54;;;;;;;0.80;0.73;;;2.50;99.90;;;;;;5419270;26;20010;-76
2024/04/21 02:50:20;;;;;;;0.60;0.55;;;2.30;99.90;;;;;;5451826;26;19998;-77
2024/04/21 02:52:46;;;;;;;0.70;0.70;;;2.10;99.90;;;;;;5420504;26;20002;-77
2024/04/21 02:55:11;;;;;;;0.65;0.47;;;2.00;99.90;;;;;;5419751;26;19999;-76
2024/04/21 02:57:37;;;;;;;0.65;0.60;;;2.20;99.90;;;;;;5451866;26;19998;-77
2024/04/21 03:00:03;;;;;;;1.65;0.90;;;1.40;99.90;;;;;;5420011;26;19995;-76
2024/04/21 03:02:28;;;;;;;0.68;0.68;;;1.20;99.90;;;;;;5420978;26;20002;-76
2024/04/21 03:04:54;;;;;;;1.10;0.68;;;1.40;99.90;;;;;;5420250;26;19999;-76
2024/04/21 03:07:20;;;;;;;0.60;0.60;;;1.20;99.90;;;;;;5451940;26;19995;-76
2024/04/21 03:09:45;;;;;;;0.70;0.70;;;1.80;99.90;;;;;;5420792;26;20329;-77
2024/04/21 03:12:11;;;;;;;0.73;0.60;;;1.80;99.90;;;;;;5420611;26;20027;-76
2024/04/21 03:14:37;;;;;;;0.50;0.50;;;2.00;99.90;;;;;;5450688;26;19995;-77
2024/04/21 03:17:03;;;;;;;0.77;0.68;;;1.10;99.90;;;;;;5419621;26;19995;-77
2024/04/21 03:19:29;;;;;;;0.70;0.70;;;0.90;99.90;;;;;;5419974;26;20476;-77
2024/04/21 03:21:55;;;;;;;0.50;0.50;;;1.90;99.90;;;;;;5419383;26;19995;-76
2024/04/21 03:24:21;;;;;;;0.40;0.40;;;0.90;99.90;;;;;;5418994;26;19998;-77
2024/04/21 03:26:47;;;;;;;3.45;0.77;;;0.90;99.90;;;;;;5451356;26;20533;-76
2024/04/21 03:29:13;;;;;;;0.50;0.50;;;0.50;99.90;;;;;;5451651;26;20452;-77
2024/04/21 03:31:38;;;;;;;0.98;0.70;;;1.00;99.90;;;;;;5451246;26;20349;-76
2024/04/21 03:34:04;;;;;;;0.85;0.60;;;1.20;99.90;;;;;;5418593;26;20363;-77
2024/04/21 03:36:29;;;;;;;0.52;0.40;;;1.40;99.90;;;;;;5419497;26;20023;-77
2024/04/21 03:38:55;;;;;;;0.52;0.50;;;1.70;99.90;;;;;;5419434;26;20003;-76
2024/04/21 03:41:21;;;;;;;1.73;1.17;;;0.70;99.90;;;;;;5451036;26;20006;-77
2024/04/21 03:43:50;;;;;;;3.17;0.57;;;1.30;99.90;;;;;;5450199;26;19999;-77
2024/04/21 03:46:15;;;;;;;0.77;0.70;;;0.70;99.90;;;;;;5451094;26;20010;-77
2024/04/21 03:48:41;;;;;;;1.13;0.70;;;1.50;99.90;;;;;;5451003;26;19995;-77
2024/04/21 03:51:07;;;;;;;1.17;0.90;;;0.30;99.90;;;;;;5450715;26;19995;-77
2024/04/21 03:53:32;;;;;;;0.68;0.68;;;0.60;99.90;;;;;;5451024;26;20071;-77
2024/04/21 03:55:58;;;;;;;0.65;0.55;;;2.00;99.90;;;;;;5418394;26;20003;-77
2024/04/21 03:58:24;;;;;;;0.82;0.80;;;1.20;99.90;;;;;;5420942;26;20019;-77
2024/04/21 04:00:50;;;;;;;0.50;0.50;;;1.00;99.90;;;;;;5454654;26;20009;-76
2024/04/21 04:03:16;;;;;;;1.73;1.60;;;1.50;99.90;;;;;;5455029;26;20024;-77
2024/04/21 04:05:45;;;;;;;1.38;1.27;;;1.70;99.90;;;;;;5421895;26;19999;-76
2024/04/21 04:08:12;;;;;;;1.10;1.00;;;0.80;99.90;;;;;;5422589;26;19999;-76
2024/04/21 04:10:40;;;;;;;0.65;0.65;;;0.20;99.90;;;;;;5422299;26;20072;-76
2024/04/21 04:13:06;;;;;;;0.88;0.63;;;1.30;99.90;;;;;;5422342;26;20441;-77
2024/04/21 04:15:31;;;;;;;1.00;0.60;;;-0.10;99.90;;;;;;5453284;26;20007;-76
2024/04/21 04:17:58;;;;;;;1.70;1.33;;;1.80;99.90;;;;;;5422450;26;19999;-76
2024/04/21 04:20:25;;;;;;;1.23;1.13;;;1.50;99.90;;;;;;5422156;26;20009;-76
2024/04/21 04:22:50;;;;;;;1.52;1.20;;;1.20;99.90;;;;;;5422319;26;20516;-77
2024/04/21 04:25:16;;;;;;;0.98;0.90;;;0.20;99.90;;;;;;5421555;26;20007;-76
2024/04/21 04:27:42;;;;;;;0.88;0.88;;;1.10;99.90;;;;;;5454022;26;20441;-77
2024/04/21 04:30:08;;;;;;;0.88;0.88;;;1.40;99.90;;;;;;5454108;26;20009;-77
2024/04/21 04:32:34;;;;;;;0.70;0.70;;;0.70;99.90;;;;;;5453701;26;19999;-76
2024/04/21 04:35:00;;;;;;;1.90;1.17;;;0.80;99.90;;;;;;5421274;26;20452;-76
2024/04/21 04:37:26;;;;;;;1.83;1.13;;;1.30;99.90;;;;;;5421866;26;20447;-76
2024/04/21 04:39:51;;;;;;;1.38;1.10;;;1.60;99.90;;;;;;5422036;26;20010;-77
2024/04/21 04:42:17;;;;;;;0.80;0.80;;;0.70;99.90;;;;;;5453735;26;20452;-76
2024/04/21 04:44:43;;;;;;;1.67;1.58;;;1.20;99.90;;;;;;5453011;26;19995;-76
2024/04/21 04:47:08;;;;;;;1.98;1.20;;;1.30;99.90;;;;;;5453253;26;20402;-76
2024/04/21 04:49:34;;;;;;;1.02;1.02;;;1.10;99.90;;;;;;5453970;26;20002;-76
2024/04/21 04:52:00;;;;;;;1.00;0.90;;;1.50;99.90;;;;;;5421782;26;20450;-76
2024/04/21 04:54:25;;;;;;;1.52;1.02;;;0.90;99.90;;;;;;5421163;26;20071;-76
2024/04/21 04:56:54;;;;;;;1.88;0.80;;;1.10;99.90;;;;;;5453620;26;20067;-77
2024/04/21 04:59:21;;;;;;;1.95;0.85;;;1.50;99.90;;;;;;5453691;26;20022;-77
2024/04/21 05:01:47;;;;;;;1.00;0.82;;;1.90;99.90;;;;;;5418190;26;20441;-76
2024/04/21 05:04:12;;;;;;;1.30;0.80;;;0.70;99.90;;;;;;5421393;26;20013;-76
2024/04/21 05:06:38;;;;;;;1.42;1.20;;;3.00;99.90;;;;;;5442204;26;20026;-76
2024/04/21 05:09:07;;;;;;;1.67;1.17;;;2.50;99.90;;;;;;5425519;26;20013;-75
2024/04/21 05:11:33;;;;;;;1.38;1.27;;;2.10;99.90;;;;;;5453743;26;19995;-76
2024/04/21 05:13:59;;;;;;;1.38;0.93;;;1.80;99.90;;;;;;5421930;26;19991;-74
2024/04/21 05:16:25;;;;;;;4.32;1.20;;;2.20;99.90;;;;;;5422631;26;20348;-76
2024/04/21 05:18:51;;;;;;;1.38;1.17;;;1.90;99.90;;;;;;5453624;26;19998;-76
2024/04/21 05:21:17;;;;;;;2.95;1.60;;;2.20;99.90;;;;;;5453151;26;20029;-76
2024/04/21 05:23:42;;;;;;;1.27;1.17;;;1.90;99.90;;;;;;5420812;26;20529;-76
2024/04/21 05:26:08;;;;;;;1.33;1.27;;;1.90;99.90;;;;;;5421457;26;20010;-76
2024/04/21 05:28:34;;;;;;;1.38;0.80;;;2.30;99.90;;;;;;5453015;26;19998;-76
2024/04/21 05:30:59;;;;;;;1.10;0.80;;;1.40;99.90;;;;;;5452865;26;19998;-76
2024/04/21 05:33:26;;;;;;;1.23;1.20;;;2.20;99.90;;;;;;5453133;26;20006;-76
2024/04/21 05:35:52;;;;;;;2.53;1.30;;;2.30;99.90;;;;;;5452302;26;20005;-76
2024/04/21 05:38:18;;;;;;;2.55;1.40;;;2.30;99.90;;;;;;5452808;26;19994;-77
2024/04/21 05:40:45;;;;;;;3.33;1.23;;;2.50;99.90;;;;;;5451189;26;20009;-76
2024/04/21 05:43:10;;;;;;;0.77;0.75;;;2.50;99.90;;;;;;5431886;26;19998;-77
2024/04/21 05:45:36;;;;;;;1.10;1.00;;;2.40;99.90;;;;;;5433312;26;20010;-76
2024/04/21 05:48:02;;;;;;;1.33;1.20;;;2.40;99.90;;;;;;5436833;26;20003;-77
2024/04/21 05:50:27;;;;;;;2.05;0.88;;;2.70;99.90;;;;;;5456571;26;20070;-75
2024/04/21 05:52:53;;;;;;;1.38;1.17;;;3.20;99.90;;;;;;5473550;26;20059;-76
2024/04/21 05:55:19;;;;;;;1.80;1.15;;;2.80;99.90;;;;;;5444222;26;19994;-76
2024/04/21 05:57:44;;;;;;;1.30;1.00;;;3.20;99.90;;;;;;5473747;26;20005;-76
2024/04/21 06:00:10;;;;;;;3.40;1.77;;;3.20;99.90;;;;;;5472029;26;20014;-75
2024/04/21 06:02:36;;;;;;;1.63;1.52;;;3.20;99.90;;;;;;5450511;26;20006;-76
2024/04/21 06:05:03;;;;;;;3.90;1.90;;;3.30;99.90;;;;;;5451702;26;20529;-77
2024/04/21 06:07:28;;;;;;;1.52;1.35;;;3.50;99.90;;;;;;5456498;26;20010;-76
2024/04/21 06:09:54;;;;;;;2.10;1.58;;;3.70;99.90;;;;;;5441519;26;20078;-76
2024/04/21 06:12:22;;;;;;;5.30;1.45;;;3.90;99.90;;;;;;5440733;26;19990;-77
2024/04/21 06:14:48;;;;;;;16.38;8.02;;;4.00;99.90;;;;;;5442690;26;19999;-76
2024/04/21 06:17:13;;;;;;;3.05;2.45;;;4.20;99.90;;;;;;5445110;26;20009;-76
2024/04/21 06:19:39;;;;;;;2.58;1.55;;;4.40;99.90;;;;;;5411623;26;20076;-77
2024/04/21 06:22:04;;;;;;;1.75;1.58;;;4.50;99.90;;;;;;5414533;26;20433;-76
2024/04/21 06:24:30;;;;;;;3.15;1.30;;;4.60;98.70;;;;;;5429531;26;19993;-77
2024/04/21 06:26:56;;;;;;;2.38;1.35;;;4.90;96.70;;;;;;5441493;26;19994;-76
2024/04/21 06:29:21;;;;;;;1.73;1.02;;;4.90;96.60;;;;;;5456347;26;19997;-76
2024/04/21 06:31:47;;;;;;;1.83;1.52;;;5.10;96.00;;;;;;5488638;26;20001;-77
2024/04/21 06:34:12;;;;;;;1.48;1.00;;;5.20;95.20;;;;;;5487583;26;19987;-76
2024/04/21 06:36:38;;;;;;;1.20;1.10;;;5.40;94.60;;;;;;5488776;26;19994;-77
2024/04/21 06:39:04;;;;;;;2.58;1.75;;;5.40;93.00;;;;;;5488351;26;19990;-76
2024/04/21 06:41:29;;;;;;;2.83;1.85;;;5.50;92.90;;;;;;5488479;26;19993;-76
2024/04/21 06:43:55;;;;;;;1.17;1.05;;;5.70;93.30;;;;;;5487590;26;19994;-76
2024/04/21 06:46:21;;;;;;;2.05;0.70;;;5.90;92.00;;;;;;5456251;26;20002;-76
2024/04/21 06:48:46;;;;;;;0.90;0.90;;;6.00;91.70;;;;;;5455720;26;20329;-77
2024/04/21 06:51:12;;;;;;;1.92;1.38;;;6.10;90.90;;;;;;5488476;26;20440;-77
2024/04/21 06:53:38;;;;;;;1.67;1.27;;;6.30;90.70;;;;;;5487698;26;20154;-76
2024/04/21 06:56:04;;;;;;;3.33;1.75;;;6.50;90.10;;;;;;5455915;26;19987;-77
2024/04/21 06:58:29;;;;;;;1.88;1.25;;;6.70;89.20;;;;;;5488303;26;20342;-77
2024/04/21 07:00:55;;;;;;;3.78;3.45;;;7.00;89.20;;;;;;5477283;26;20238;-77
2024/04/21 07:03:21;;;;;;;3.60;2.72;;;7.20;87.30;;;;;;5457493;26;19994;-76
2024/04/21 07:05:47;;;;;;;7.82;5.72;;;7.40;86.00;;;;;;5471623;26;20006;-77
2024/04/21 07:08:12;;;;;;;2.05;1.95;;;7.70;83.50;;;;;;5472971;26;19991;-77
2024/04/21 07:10:38;;;;;;;3.90;2.63;;;7.70;75.30;;;;;;5456347;26;20482;-77
2024/04/21 07:13:04;;;;;;;1.70;1.60;;;7.80;73.60;;;;;;5488178;26;19998;-77
2024/04/21 07:15:30;;;;;;;1.58;1.10;;;7.80;71.60;;;;;;5487024;26;20466;-77
2024/04/21 07:17:55;;;;;;;1.40;0.90;;;7.90;70.70;;;;;;5488212;26;19994;-77
2024/04/21 07:20:21;;;;;;;3.50;1.45;;;8.00;69.40;;;;;;5455407;26;20514;-76
2024/04/21 07:22:47;;;;;;;1.30;1.00;;;8.20;68.00;;;;;;5456664;26;20000;-77
2024/04/21 07:25:14;;;;;;;1.20;1.00;;;8.20;67.90;;;;;;5487070;26;19991;-77
2024/04/21 07:27:40;;;;;;;4.13;0.75;;;8.30;65.60;;;;;;5455227;26;20453;-77
2024/04/21 07:30:10;;;;;;;3.83;0.70;;;8.30;64.80;;;;;;5488175;26;20002;-77
2024/04/21 07:32:36;;;;;;;8.35;1.17;;;8.50;66.10;;;;;;5442702;26;20510;-77
2024/04/21 07:35:02;;;;;;;2.80;0.80;;;8.30;63.20;;;;;;5467145;26;20006;-77
2024/04/21 07:37:27;;;;;;;1.30;0.70;;;8.50;64.00;;;;;;5487628;26;20452;-77
2024/04/21 07:39:55;;;;;;;1.77;0.80;;;8.60;63.60;;;;;;5487658;26;20005;-77
2024/04/21 07:42:20;;;;;;;1.05;0.73;;;8.60;59.60;;;;;;5487882;26;20058;-77
2024/04/21 07:44:47;;;;;;;1.42;1.33;;;8.60;61.20;;;;;;5455327;26;20006;-77
2024/04/21 07:47:13;;;;;;;0.70;0.70;;;8.80;61.00;;;;;;5480343;26;20002;-77
2024/04/21 07:49:39;;;;;;;1.00;0.90;;;9.00;59.00;;;;;;5415691;26;20010;-77
2024/04/21 07:52:05;;;;;;;1.60;1.15;;;8.70;57.20;;;;;;5433647;26;19999;-77
2024/04/21 07:54:31;;;;;;;1.42;0.90;;;8.90;59.00;;;;;;5463783;26;20009;-77
2024/04/21 07:56:56;;;;;;;0.60;0.60;;;9.20;57.10;;;;;;5395188;26;20007;-77
2024/04/21 07:59:22;;;;;;;0.57;0.57;;;9.00;57.00;;;;;;5467994;26;19995;-77
2024/04/21 08:01:48;;;;;;;1.38;0.80;;;9.00;55.50;;;;;;5418833;26;20468;-77
2024/04/21 08:04:13;;;;;;;0.93;0.73;;;9.10;55.50;;;;;;5416354;26;20507;-77
2024/04/21 08:06:39;;;;;;;0.88;0.80;;;9.10;55.40;;;;;;5464123;26;19995;-77
2024/04/21 08:09:05;;;;;;;1.15;1.05;;;9.30;55.90;;;;;;5438005;21;20074;-74
2024/04/21 08:11:30;;;;;;;1.30;1.20;;;9.20;53.70;;;;;;5407780;26;20005;-76
2024/04/21 08:13:57;;;;;;;1.10;0.73;;;9.20;53.90;;;;;;5420678;26;20253;-75
2024/04/21 08:16:22;;;;;;;1.05;0.95;;;9.50;52.50;;;;;;5411880;26;20010;-74
2024/04/21 08:18:48;;;;;;;1.10;1.00;;;9.40;51.50;;;;;;5413053;26;20000;-74
2024/04/21 08:21:14;;;;;;;1.88;1.30;;;9.50;50.60;;;;;;5420975;26;20015;-75
2024/04/21 08:23:40;;;;;;;0.95;0.70;;;9.50;51.00;;;;;;5424322;26;20582;-75
2024/04/21 08:26:06;;;;;;;0.95;0.80;;;9.50;49.50;;;;;;5409885;26;20000;-74
2024/04/21 08:28:31;;;;;;;0.32;0.32;;;9.60;48.90;;;;;;5407820;26;20050;-75
2024/04/21 08:30:57;;;;;;;0.90;0.60;;;9.70;48.20;;;;;;5412744;26;20004;-74
2024/04/21 08:33:23;;;;;;;0.90;0.57;;;9.70;48.90;;;;;;5402791;26;20002;-75
2024/04/21 08:35:56;;;;;;;2.20;0.85;;;9.90;48.80;;;;;;5400470;26;20498;-75
2024/04/21 08:38:22;;;;;;;0.80;0.80;;;9.80;47.00;;;;;;5400448;26;20474;-75
2024/04/21 08:40:50;;;;;;;2.15;0.50;;;9.80;48.70;;;;;;5414773;26;20036;-75
2024/04/21 08:43:25;;;;;;;3.03;2.67;;;10.00;48.50;;;;;;5414892;26;20077;-76
2024/04/21 08:45:55;;;;;;;0.90;0.90;;;10.20;50.60;;;;;;5417143;26;20335;-74
2024/04/21 08:48:22;;;;;;;0.90;0.90;;;10.30;48.10;;;;;;5403850;26;20003;-74
2024/04/21 08:50:49;;;;;;;0.60;0.60;;;10.20;48.40;;;;;;5418764;26;19996;-75
2024/04/21 08:53:16;;;;;;;1.02;0.80;;;10.20;50.80;;;;;;5417018;26;19995;-74
2024/04/21 08:55:51;;;;;;;1.80;0.73;;;10.40;48.30;;;;;;5417603;26;20002;-76
2024/04/21 08:58:18;;;;;;;1.13;1.02;;;10.20;46.50;;;;;;5418908;26;20468;-75
2024/04/21 09:00:47;;;;;;;1.65;1.55;;;10.30;46.70;;;;;;5418843;26;20090;-76
2024/04/21 09:03:16;;;;;;;0.75;0.75;;;10.40;48.60;;;;;;5418583;26;20735;-76
2024/04/21 09:05:42;;;;;;;1.92;1.20;;;10.70;50.60;;;;;;5417794;26;19992;-74
2024/04/21 09:08:08;;;;;;;1.25;1.08;;;11.00;50.00;;;;;;5416675;26;19996;-74
2024/04/21 09:10:35;;;;;;;2.20;1.55;;;11.30;49.10;;;;;;5443105;26;19990;-75
2024/04/21 09:13:01;;;;;;;5.05;3.28;;;11.40;46.80;;;;;;5449597;26;19999;-75
2024/04/21 09:15:29;;;;;;;7.35;5.22;;;11.40;47.60;;;;;;5416659;26;20323;-75
2024/04/21 09:17:54;;;;;;;2.63;2.17;;;11.50;47.40;;;;;;5444904;26;19998;-74
2024/04/21 09:20:20;;;;;;;3.33;2.92;;;11.60;44.60;;;;;;5409774;26;20010;-75
2024/04/21 09:22:45;;;;;;;1.85;1.45;;;11.50;45.60;;;;;;5439545;26;20435;-76
2024/04/21 09:25:11;;;;;;;3.20;2.90;;;11.90;66.60;;;;;;5446702;26;19998;-75
2024/04/21 09:27:37;;;;;;;2.08;1.88;;;12.00;45.40;;;;;;5441089;26;20009;-75
2024/04/21 09:30:03;;;;;;;0.90;0.90;;;11.70;43.80;;;;;;5421418;26;20044;-76
2024/04/21 09:32:29;;;;;;;2.05;1.80;;;11.50;45.90;;;;;;5453573;26;19998;-75
2024/04/21 09:34:55;;;;;;;1.63;1.52;;;11.70;46.70;;;;;;5452598;26;20006;-75
2024/04/21 09:37:21;;;;;;;3.50;2.65;;;11.90;45.00;;;;;;5421421;26;20494;-74
2024/04/21 09:39:48;;;;;;;4.28;2.45;;;11.90;42.90;;;;;;5421614;26;20336;-74
2024/04/21 09:42:18;;;;;;;0.95;0.82;;;12.00;43.20;;;;;;5421286;26;20451;-75
2024/04/21 09:44:45;;;;;;;0.98;0.98;;;12.30;40.00;;;;;;5452245;26;20362;-78
2024/04/21 09:47:15;;;;;;;0.95;0.95;;;12.30;40.40;;;;;;5421606;26;20009;-75
2024/04/21 09:49:42;;;;;;;0.50;0.50;;;12.40;38.50;;;;;;5421421;26;20044;-75
2024/04/21 09:52:08;;;;;;;2.05;0.57;;;12.60;39.50;;;;;;5415773;26;19991;-75
2024/04/21 09:54:34;;;;;;;0.82;0.70;;;12.40;35.60;;;;;;5431074;26;19995;-75
2024/04/21 09:57:15;;;;;;;2.17;1.10;;;12.00;36.60;;;;;;5427747;26;20010;-75
2024/04/21 09:59:43;;;;;;;1.00;0.57;;;11.90;36.60;;;;;;5440989;26;20010;-75
2024/04/21 10:02:35;;;;;;;0.80;0.80;;;11.50;37.80;;;;;;5438344;26;20012;-75
2024/04/21 10:05:05;;;;;;;2.83;0.77;;;11.40;37.60;;;;;;5437379;26;19999;-74
2024/04/21 10:07:35;;;;;;;0.70;0.70;;;11.30;38.10;;;;;;5401272;26;20511;-75
2024/04/21 10:10:10;;;;;;;1.98;0.95;;;11.40;36.60;;;;;;5385367;26;20464;-75
2024/04/21 10:12:37;;;;;;;1.30;0.77;;;11.60;37.90;;;;;;5417084;26;20346;-75
2024/04/21 10:15:05;;;;;;;0.95;0.35;;;11.90;38.30;;;;;;5419349;26;20221;-75
2024/04/21 10:17:31;;;;;;;0.57;0.50;;;12.00;34.50;;;;;;5431551;26;20007;-75
2024/04/21 10:20:01;;;;;;;3.90;1.52;;;12.00;35.30;;;;;;5385100;26;19995;-75
2024/04/21 10:22:27;;;;;;;0.90;0.80;;;12.30;35.90;;;;;;5385092;26;20003;-76
2024/04/21 10:24:53;;;;;;;0.50;0.38;;;12.30;35.60;;;;;;5415499;26;19996;-75
2024/04/21 10:27:22;;;;;;;0.65;0.52;;;12.10;32.00;;;;;;5391469;26;19995;-74
2024/04/21 10:29:49;;;;;;;0.43;0.38;;;11.70;31.90;;;;;;5448012;26;20003;-76
2024/04/21 10:32:16;;;;;;;1.13;0.30;;;11.70;38.80;;;;;;5438525;26;20068;-77
2024/04/21 10:34:47;;;;;;;0.80;0.75;;;11.80;33.90;;;;;;5419342;26;20001;-76
2024/04/21 10:37:25;;;;;;;0.32;0.32;;;12.00;35.10;;;;;;5420756;26;20014;-75
2024/04/21 10:40:05;;;;;;;0.35;0.30;;;12.40;32.80;;;;;;5384752;26;20080;-75
2024/04/21 10:42:35;;;;;;;0.20;0.20;;;12.70;32.00;;;;;;5384390;26;19999;-76
2024/04/21 10:45:01;;;;;;;0.30;0.30;;;12.90;31.50;;;;;;5433032;26;20014;-75
2024/04/21 10:47:27;;;;;;;1.35;0.55;;;13.00;31.50;;;;;;5420283;26;20466;-75
2024/04/21 10:49:53;;;;;;;0.20;0.20;;;12.50;30.10;;;;;;5420351;26;20002;-74
2024/04/21 10:52:19;;;;;;;3.50;0.50;;;12.50;31.10;;;;;;5452551;26;19999;-75
2024/04/21 10:54:45;;;;;;;0.15;0.15;;;12.50;30.40;;;;;;5419701;26;19995;-75
2024/04/21 10:57:11;;;;;;;0.57;0.28;;;12.40;30.10;;;;;;5452399;26;20003;-75
2024/04/21 10:59:36;;;;;;;0.25;0.20;;;12.30;32.30;;;;;;5420465;26;20059;-75
2024/04/21 11:02:02;;;;;;;0.38;0.38;;;12.20;30.50;;;;;;5452829;26;19998;-76
2024/04/21 11:04:28;;;;;;;0.38;0.38;;;12.00;30.10;;;;;;5450666;26;20010;-76
2024/04/21 11:06:54;;;;;;;0.30;0.20;;;12.00;31.10;;;;;;5451565;26;19999;-75
2024/04/21 11:09:22;;;;;;;2.00;0.50;;;11.90;30.00;;;;;;5451765;26;19999;-75
2024/04/21 11:11:48;;;;;;;0.28;0.20;;;11.80;29.90;;;;;;5419951;26;20010;-76
2024/04/21 11:14:14;;;;;;;1.38;0.28;;;11.80;30.00;;;;;;5418826;26;20461;-75
2024/04/21 11:16:40;;;;;;;1.83;0.93;;;11.50;30.30;;;;;;5452006;26;20473;-76
2024/04/21 11:19:06;;;;;;;0.70;0.70;;;11.70;31.60;;;;;;5451914;26;20009;-75
2024/04/21 11:21:32;;;;;;;0.20;0.20;;;11.70;31.20;;;;;;5451703;26;20001;-76
2024/04/21 11:23:58;;;;;;;0.65;0.60;;;11.60;30.40;;;;;;5413036;26;19995;-75
2024/04/21 11:26:23;;;;;;;0.40;0.30;;;11.30;31.10;;;;;;5436429;26;20022;-75
2024/04/21 11:28:49;;;;;;;0.32;0.32;;;11.40;31.50;;;;;;5449244;26;20006;-75
2024/04/21 11:31:15;;;;;;;0.30;0.30;;;11.50;31.40;;;;;;5436824;26;20012;-76
2024/04/21 11:33:41;;;;;;;0.20;0.20;;;11.20;30.60;;;;;;5436651;26;20005;-75
2024/04/21 11:36:12;;;;;;;1.85;0.25;;;11.20;30.00;;;;;;5451744;26;19998;-76
2024/04/21 11:38:38;;;;;;;0.10;0.10;;;11.20;29.80;;;;;;5452054;26;20071;-75
2024/04/21 11:41:04;;;;;;;0.57;0.25;;;11.60;31.00;;;;;;5436808;26;20341;-75
2024/04/21 11:43:30;;;;;;;0.13;0.10;;;11.70;30.70;;;;;;5451938;26;19995;-75
2024/04/21 11:46:03;;;;;;;0.65;0.30;;;12.10;30.80;;;;;;5433386;26;20034;-76
2024/04/21 11:48:31;;;;;;;0.20;0.20;;;12.20;29.00;;;;;;5398418;26;20101;-75
2024/04/21 11:50:57;;;;;;;0.20;0.20;;;12.50;30.40;;;;;;5415121;26;20069;-75
2024/04/21 11:53:24;;;;;;;0.90;0.20;;;12.60;28.80;;;;;;5434914;26;20029;-75
2024/04/21 11:55:49;;;;;;;1.17;0.30;;;12.60;28.80;;;;;;5450188;26;20518;-75
2024/04/21 11:58:15;;;;;;;0.10;0.10;;;12.70;28.70;;;;;;5448630;26;20006;-74
2024/04/21 12:00:41;;;;;;;1.23;0.30;;;12.70;28.90;;;;;;5438843;26;20010;-75
2024/04/21 12:03:06;;;;;;;0.30;0.30;;;12.60;29.10;;;;;;5419812;26;20002;-75
2024/04/21 12:05:32;;;;;;;0.30;0.30;;;12.50;29.70;;;;;;5436687;26;19991;-75
2024/04/21 12:07:58;;;;;;;0.20;0.20;;;12.80;28.60;;;;;;5441721;26;20003;-75
2024/04/21 12:10:23;;;;;;;0.65;0.20;;;13.00;28.70;;;;;;5404267;26;20029;-75
2024/04/21 12:12:49;;;;;;;0.50;0.30;;;13.00;29.20;;;;;;5419963;26;19998;-75
2024/04/21 12:15:15;;;;;;;1.48;0.25;;;13.00;28.40;;;;;;5448108;26;20002;-76
2024/04/21 12:17:40;;;;;;;0.22;0.22;;;13.00;27.80;;;;;;5438604;26;20422;-76
2024/04/21 12:20:06;;;;;;;0.20;0.20;;;12.90;26.60;;;;;;5436659;26;20456;-74
2024/04/21 12:22:31;;;;;;;0.10;0.10;;;13.20;27.20;;;;;;5410508;26;20007;-74
2024/04/21 12:24:57;;;;;;;0.20;0.20;;;13.30;27.80;;;;;;5414412;26;20026;-71
2024/04/21 12:27:23;;;;;;;0.47;0.40;;;13.10;27.20;;;;;;5439680;26;20003;-76
2024/04/21 12:29:48;;;;;;;0.95;0.30;;;13.00;26.60;;;;;;5457408;26;20004;-79
2024/04/21 12:32:14;;;;;;;0.10;0.10;;;13.10;27.70;;;;;;5457658;26;20490;-77
2024/04/21 12:34:39;;;;;;;0.30;0.30;;;13.20;28.20;;;;;;5439102;26;20003;-76
2024/04/21 12:37:05;;;;;;;3.47;0.25;;;13.40;28.70;;;;;;5456577;26;20340;-77
2024/04/21 12:39:31;;;;;;;1.30;0.40;;;13.50;27.90;;;;;;5456917;26;20049;-72
2024/04/21 12:41:57;;;;;;;0.30;0.30;;;13.60;28.00;;;;;;5454351;26;20475;-75
2024/04/21 12:44:22;;;;;;;0.30;0.30;;;13.40;27.40;;;;;;5421495;26;20450;-76
2024/04/21 12:46:48;;;;;;;0.38;0.38;;;13.00;28.20;;;;;;5400238;26;20349;-77